Time;durP1;ratioP1;P1;durP2;ratioP2;P2;SDS_P1;SDS_P2;PMS_P1;PMS_P2;Temp;Humidity;BMP_temperature;BMP_pressure;BME280_temperature;BME280_humidity;BME280_pressure;Samples;Min_cycle;Max_cycle;Signal;HPM_P1;HPM_P2
2022/08/09 00:02:52;;;;;;;0.75;0.65;;;23.80;48.60;;;;;;6220907;28;20029;-67
2022/08/09 00:05:53;;;;;;;0.60;0.60;;;23.80;49.00;;;;;;6246267;28;20488;-67
2022/08/09 00:08:54;;;;;;;0.85;0.70;;;23.80;49.30;;;;;;6227895;28;20042;-67
2022/08/09 00:11:55;;;;;;;1.23;0.60;;;23.80;49.60;;;;;;6222662;28;20424;-67
2022/08/09 00:14:56;;;;;;;1.08;0.98;;;23.70;49.80;;;;;;6245674;28;20029;-67
2022/08/09 00:17:56;;;;;;;1.20;0.90;;;23.70;49.90;;;;;;6236908;28;20473;-67
2022/08/09 00:20:58;;;;;;;0.70;0.70;;;23.70;49.90;;;;;;6221466;28;20028;-67
2022/08/09 00:23:58;;;;;;;0.88;0.88;;;23.70;50.00;;;;;;6238041;28;20499;-67
2022/08/09 00:27:00;;;;;;;0.88;0.85;;;23.70;49.90;;;;;;6245954;28;20078;-67
2022/08/09 00:30:00;;;;;;;0.82;0.80;;;23.70;50.00;;;;;;6221258;28;20439;-67
2022/08/09 00:33:01;;;;;;;0.68;0.68;;;23.70;50.00;;;;;;6220540;28;20079;-66
2022/08/09 00:36:02;;;;;;;0.80;0.80;;;23.70;50.10;;;;;;6221393;28;20381;-67
2022/08/09 00:39:03;;;;;;;0.80;0.80;;;23.70;50.20;;;;;;6236207;28;20033;-67
2022/08/09 00:42:04;;;;;;;0.65;0.65;;;23.60;50.10;;;;;;6246357;28;20358;-67
2022/08/09 00:45:06;;;;;;;0.85;0.73;;;23.70;50.30;;;;;;6222521;28;20339;-67
2022/08/09 00:48:07;;;;;;;1.10;0.70;;;23.60;50.30;;;;;;6226698;28;20659;-67
2022/08/09 00:51:08;;;;;;;1.13;0.80;;;23.60;50.40;;;;;;6244887;28;20025;-67
2022/08/09 00:54:09;;;;;;;0.65;0.60;;;23.60;50.30;;;;;;6231948;28;20100;-67
2022/08/09 00:57:09;;;;;;;1.00;0.80;;;23.60;50.40;;;;;;6220702;28;20076;-67
2022/08/09 01:00:11;;;;;;;0.85;0.82;;;23.60;50.40;;;;;;6240902;28;20033;-67
2022/08/09 01:03:21;;;;;;;0.60;0.60;;;23.60;50.40;;;;;;6220959;28;20027;-67
2022/08/09 01:06:46;;;;;;;0.73;0.70;;;23.60;50.50;;;;;;6246047;28;20026;-67
2022/08/09 01:09:52;;;;;;;;;;;23.60;50.60;;;;;;6229144;28;20409;-67
2022/08/09 01:13:02;;;;;;;0.70;0.65;;;23.60;50.70;;;;;;6221763;28;19955;-67
2022/08/09 01:16:04;;;;;;;1.10;0.90;;;23.60;50.70;;;;;;6244617;28;20365;-67
2022/08/09 01:19:31;;;;;;;0.80;0.80;;;23.60;50.70;;;;;;6234453;28;20048;-67
2022/08/09 01:22:50;;;;;;;0.95;0.85;;;23.60;50.80;;;;;;6220380;28;20381;-67
2022/08/09 01:25:57;;;;;;;0.82;0.70;;;23.60;50.80;;;;;;6228250;28;20021;-67
2022/08/09 01:29:00;;;;;;;1.10;1.00;;;23.60;50.80;;;;;;6220104;28;20396;-66
2022/08/09 01:32:03;;;;;;;0.63;0.63;;;23.60;50.90;;;;;;6219342;28;20049;-67
2022/08/09 01:35:13;;;;;;;0.80;0.70;;;23.60;50.90;;;;;;6220332;28;20022;-67
2022/08/09 01:38:17;;;;;;;0.70;0.70;;;23.60;51.00;;;;;;6220313;28;20022;-67
2022/08/09 01:41:28;;;;;;;0.98;0.90;;;23.60;51.00;;;;;;6243934;28;20021;-67
2022/08/09 01:44:30;;;;;;;0.60;0.60;;;23.60;51.00;;;;;;6234762;28;20392;-67
2022/08/09 01:47:31;;;;;;;0.70;0.70;;;23.60;51.10;;;;;;6220299;28;20029;-67
2022/08/09 01:50:34;;;;;;;0.80;0.80;;;23.60;51.00;;;;;;6237376;28;20064;-67
2022/08/09 01:53:36;;;;;;;0.82;0.60;;;23.60;51.10;;;;;;6242511;28;20100;-66
2022/08/09 01:56:41;;;;;;;0.70;0.60;;;23.60;51.10;;;;;;6219579;28;20060;-67
2022/08/09 01:59:46;;;;;;;2.15;0.90;;;23.60;51.20;;;;;;6228672;28;20388;-67
2022/08/09 02:02:50;;;;;;;1.17;0.80;;;23.60;51.10;;;;;;6200380;28;20220;-67
2022/08/09 02:05:53;;;;;;;0.80;0.80;;;23.50;51.10;;;;;;6231704;28;20490;-67
2022/08/09 02:08:54;;;;;;;0.88;0.73;;;23.60;51.20;;;;;;6242613;28;20034;-67
2022/08/09 02:11:56;;;;;;;0.85;0.80;;;23.50;51.10;;;;;;6220193;28;20026;-67
2022/08/09 02:15:00;;;;;;;1.38;0.93;;;23.50;51.10;;;;;;6229152;28;20022;-67
2022/08/09 02:18:03;;;;;;;0.90;0.75;;;23.60;51.20;;;;;;6244673;28;20014;-67
2022/08/09 02:21:12;;;;;;;0.75;0.65;;;23.50;51.10;;;;;;6225867;28;20025;-67
2022/08/09 02:24:19;;;;;;;0.80;0.70;;;23.50;51.20;;;;;;6218595;28;20050;-67
2022/08/09 02:27:22;;;;;;;1.00;0.70;;;23.50;51.20;;;;;;6217533;28;20030;-67
2022/08/09 02:30:23;;;;;;;0.73;0.70;;;23.50;51.20;;;;;;6219613;28;20042;-67
2022/08/09 02:33:27;;;;;;;0.80;0.80;;;23.50;51.20;;;;;;6218970;28;20022;-67
2022/08/09 02:36:33;;;;;;;0.63;0.63;;;23.50;51.30;;;;;;6218976;28;20065;-67
2022/08/09 02:39:39;;;;;;;0.77;0.70;;;23.50;51.20;;;;;;6221135;28;20053;-66
2022/08/09 02:42:42;;;;;;;1.02;0.70;;;23.50;51.20;;;;;;6242619;28;20037;-67
2022/08/09 02:45:44;;;;;;;1.00;0.88;;;23.50;51.20;;;;;;6231448;28;20485;-67
2022/08/09 02:48:47;;;;;;;1.60;0.85;;;23.50;51.20;;;;;;6218980;28;20488;-67
2022/08/09 02:51:54;;;;;;;0.80;0.80;;;23.50;51.30;;;;;;6239180;28;20033;-67
2022/08/09 02:54:56;;;;;;;0.80;0.77;;;23.50;51.30;;;;;;6240041;28;20525;-67
2022/08/09 02:57:58;;;;;;;0.80;0.70;;;23.50;51.30;;;;;;6218866;28;20046;-67
2022/08/09 03:01:00;;;;;;;0.88;0.73;;;23.50;51.30;;;;;;6214981;28;20101;-67
2022/08/09 03:04:01;;;;;;;1.08;0.80;;;23.50;51.30;;;;;;6193754;28;20041;-67
2022/08/09 03:07:04;;;;;;;0.70;0.63;;;23.50;51.40;;;;;;6232911;28;20025;-67
2022/08/09 03:10:06;;;;;;;0.90;0.80;;;23.50;51.30;;;;;;6239676;28;20400;-67
2022/08/09 03:13:07;;;;;;;1.35;0.80;;;23.50;51.40;;;;;;6218159;28;20254;-67
2022/08/09 03:16:08;;;;;;;1.00;0.90;;;23.50;51.30;;;;;;6229329;28;20072;-67
2022/08/09 03:19:10;;;;;;;0.60;0.60;;;23.50;51.40;;;;;;6243418;28;20025;-67
2022/08/09 03:22:11;;;;;;;0.85;0.80;;;23.50;51.40;;;;;;6224892;28;20608;-67
2022/08/09 03:25:13;;;;;;;0.70;0.70;;;23.50;51.50;;;;;;6220492;28;20046;-67
2022/08/09 03:28:14;;;;;;;0.90;0.80;;;23.50;52.10;;;;;;6243255;28;20040;-67
2022/08/09 03:31:16;;;;;;;0.70;0.70;;;23.50;51.40;;;;;;6233537;28;20080;-67
2022/08/09 03:34:17;;;;;;;0.85;0.80;;;23.50;51.40;;;;;;6218730;28;20715;-67
2022/08/09 03:37:18;;;;;;;0.65;0.65;;;23.50;51.40;;;;;;6218993;28;20038;-67
2022/08/09 03:40:19;;;;;;;1.02;0.70;;;23.50;51.40;;;;;;6218362;28;20034;-67
2022/08/09 03:43:20;;;;;;;0.80;0.80;;;23.50;51.40;;;;;;6243286;28;20433;-67
2022/08/09 03:46:20;;;;;;;1.20;0.80;;;23.50;51.40;;;;;;6234942;28;20022;-67
2022/08/09 03:49:25;;;;;;;0.90;0.80;;;23.50;51.40;;;;;;6221388;28;20358;-67
2022/08/09 03:52:28;;;;;;;1.02;0.90;;;23.50;51.40;;;;;;6239450;28;20029;-67
2022/08/09 03:55:29;;;;;;;1.10;0.95;;;23.50;51.40;;;;;;6246770;28;20030;-67
2022/08/09 03:58:30;;;;;;;1.15;0.75;;;23.50;51.50;;;;;;6197374;28;20072;-67
2022/08/09 04:01:31;;;;;;;0.93;0.82;;;23.50;51.40;;;;;;6216993;28;20009;-67
2022/08/09 04:04:34;;;;;;;0.77;0.77;;;23.50;51.50;;;;;;6246140;28;20468;-67
2022/08/09 04:07:35;;;;;;;0.80;0.80;;;23.50;51.50;;;;;;6231787;28;20053;-67
2022/08/09 04:10:35;;;;;;;0.77;0.70;;;23.50;51.50;;;;;;6222148;28;20037;-67
2022/08/09 04:13:36;;;;;;;0.70;0.70;;;23.50;51.50;;;;;;6244865;28;20041;-67
2022/08/09 04:16:37;;;;;;;0.70;0.70;;;23.50;51.50;;;;;;6240193;28;20097;-67
2022/08/09 04:19:38;;;;;;;0.70;0.60;;;23.50;51.50;;;;;;6222443;28;20032;-67
2022/08/09 04:22:39;;;;;;;0.82;0.80;;;23.50;51.50;;;;;;6236280;28;20564;-67
2022/08/09 04:25:41;;;;;;;0.70;0.68;;;23.50;51.50;;;;;;6245983;28;20049;-67
2022/08/09 04:28:42;;;;;;;1.25;0.80;;;23.50;51.60;;;;;;6223480;28;20034;-67
2022/08/09 04:31:43;;;;;;;1.00;0.90;;;23.50;51.50;;;;;;6221947;28;20014;-67
2022/08/09 04:34:43;;;;;;;0.98;0.85;;;23.50;51.50;;;;;;6221838;28;20090;-67
2022/08/09 04:37:44;;;;;;;0.80;0.77;;;23.50;51.60;;;;;;6233961;28;20041;-67
2022/08/09 04:40:48;;;;;;;0.77;0.77;;;23.50;51.50;;;;;;6244747;28;20104;-67
2022/08/09 04:43:48;;;;;;;0.98;0.70;;;23.50;51.60;;;;;;6225589;28;20389;-67
2022/08/09 04:46:49;;;;;;;1.10;1.00;;;23.50;51.60;;;;;;6224984;28;20100;-67
2022/08/09 04:49:50;;;;;;;1.00;0.80;;;23.50;51.60;;;;;;6246224;28;20087;-67
2022/08/09 04:52:51;;;;;;;0.90;0.80;;;23.50;51.60;;;;;;6234774;28;20037;-67
2022/08/09 04:55:52;;;;;;;0.80;0.80;;;23.50;51.60;;;;;;6221596;28;20033;-67
2022/08/09 04:58:52;;;;;;;0.90;0.73;;;23.50;51.60;;;;;;6240842;28;20061;-67
2022/08/09 05:01:53;;;;;;;0.73;0.73;;;23.50;51.60;;;;;;6220057;28;20025;-67
2022/08/09 05:04:54;;;;;;;1.00;0.90;;;23.50;51.60;;;;;;6245254;28;20105;-67
2022/08/09 05:07:55;;;;;;;0.60;0.60;;;23.50;51.60;;;;;;6234539;28;20061;-67
2022/08/09 05:10:56;;;;;;;0.70;0.70;;;23.50;51.60;;;;;;6220376;28;20029;-67
2022/08/09 05:13:56;;;;;;;0.80;0.80;;;23.50;51.90;;;;;;6238826;28;20372;-67
2022/08/09 05:16:58;;;;;;;1.17;0.80;;;23.50;51.60;;;;;;6244052;28;20100;-67
2022/08/09 05:19:59;;;;;;;0.80;0.70;;;23.50;51.70;;;;;;6220075;28;20022;-67
2022/08/09 05:23:00;;;;;;;1.00;0.80;;;23.50;51.70;;;;;;6229653;28;20088;-67
2022/08/09 05:26:00;;;;;;;0.90;0.80;;;23.50;51.70;;;;;;6244673;28;20033;-67
2022/08/09 05:29:01;;;;;;;1.02;0.88;;;23.50;51.70;;;;;;6229074;28;20496;-67
2022/08/09 05:32:02;;;;;;;0.80;0.80;;;23.50;51.70;;;;;;6205726;28;20050;-67
2022/08/09 05:35:04;;;;;;;1.08;0.77;;;23.50;51.70;;;;;;6220803;28;20026;-67
2022/08/09 05:38:05;;;;;;;0.77;0.77;;;23.50;51.70;;;;;;6227925;28;20068;-67
2022/08/09 05:41:05;;;;;;;1.30;0.80;;;23.50;51.70;;;;;;6244961;28;20025;-67
2022/08/09 05:44:06;;;;;;;0.90;0.80;;;23.50;51.70;;;;;;6230279;28;20030;-67
2022/08/09 05:47:06;;;;;;;0.77;0.70;;;23.50;51.70;;;;;;6219448;28;20065;-68
2022/08/09 05:50:08;;;;;;;1.10;0.80;;;23.50;51.80;;;;;;6242942;28;20083;-67
2022/08/09 05:53:10;;;;;;;1.02;0.73;;;23.50;51.80;;;;;;6238072;28;20097;-67
2022/08/09 05:56:10;;;;;;;0.80;0.70;;;23.50;51.90;;;;;;6219407;28;20089;-67
2022/08/09 05:59:11;;;;;;;0.77;0.70;;;23.50;51.70;;;;;;6228650;28;20034;-67
2022/08/09 06:02:12;;;;;;;0.98;0.80;;;23.40;51.60;;;;;;6210552;28;20026;-67
2022/08/09 06:05:13;;;;;;;1.13;0.80;;;23.50;51.70;;;;;;6226842;28;20053;-67
2022/08/09 06:08:13;;;;;;;0.98;0.82;;;23.50;51.70;;;;;;6226500;28;20479;-67
2022/08/09 06:11:14;;;;;;;1.15;1.00;;;23.50;51.80;;;;;;6245883;28;20104;-67
2022/08/09 06:14:16;;;;;;;0.98;0.90;;;23.50;51.80;;;;;;6233547;28;20033;-67
2022/08/09 06:17:17;;;;;;;1.10;1.00;;;23.50;51.80;;;;;;6221494;28;20041;-67
2022/08/09 06:20:17;;;;;;;0.88;0.82;;;23.40;51.70;;;;;;6241765;28;20539;-67
2022/08/09 06:23:18;;;;;;;3.92;0.70;;;23.50;51.80;;;;;;6219619;28;20045;-66
2022/08/09 06:26:19;;;;;;;1.15;0.95;;;23.50;52.00;;;;;;6222728;28;20029;-68
2022/08/09 06:29:20;;;;;;;0.88;0.80;;;23.50;51.80;;;;;;6221828;28;20041;-68
2022/08/09 06:32:21;;;;;;;3.22;1.08;;;23.50;52.10;;;;;;6220782;28;20491;-68
2022/08/09 06:35:21;;;;;;;1.10;1.00;;;23.50;52.10;;;;;;6221367;28;20126;-68
2022/08/09 06:38:22;;;;;;;0.82;0.80;;;23.50;52.00;;;;;;6223063;28;20025;-68
2022/08/09 06:41:23;;;;;;;2.85;0.88;;;23.50;52.00;;;;;;6216964;28;20033;-67
2022/08/09 06:44:24;;;;;;;1.55;0.80;;;23.50;52.10;;;;;;6220032;28;20030;-68
2022/08/09 06:47:25;;;;;;;2.50;1.00;;;23.50;52.00;;;;;;6218043;28;20428;-67
2022/08/09 06:50:25;;;;;;;1.20;0.90;;;23.50;52.00;;;;;;6209037;28;20393;-68
2022/08/09 06:53:26;;;;;;;1.38;1.08;;;23.50;52.00;;;;;;6213211;28;20453;-67
2022/08/09 06:56:27;;;;;;;1.13;0.90;;;23.50;52.00;;;;;;6219574;28;20030;-69
2022/08/09 06:59:28;;;;;;;1.00;0.90;;;23.50;52.00;;;;;;6228990;28;20468;-68
2022/08/09 07:02:29;;;;;;;0.80;0.80;;;23.50;52.10;;;;;;6220153;28;20539;-68
2022/08/09 07:05:29;;;;;;;0.80;0.80;;;23.50;52.00;;;;;;6235101;28;20025;-68
2022/08/09 07:08:31;;;;;;;1.83;0.88;;;23.60;51.90;;;;;;6245289;28;20025;-68
2022/08/09 07:11:32;;;;;;;2.15;1.00;;;23.60;51.90;;;;;;6221942;28;20072;-69
2022/08/09 07:14:33;;;;;;;1.50;1.10;;;23.60;51.90;;;;;;6226826;28;20024;-67
2022/08/09 07:17:34;;;;;;;1.33;0.90;;;23.60;52.00;;;;;;6226258;28;20030;-68
2022/08/09 07:20:34;;;;;;;1.10;1.00;;;23.60;52.10;;;;;;6220229;28;20036;-68
2022/08/09 07:23:35;;;;;;;0.93;0.82;;;23.60;52.20;;;;;;6246580;28;20465;-68
2022/08/09 07:26:35;;;;;;;2.15;0.88;;;23.60;52.20;;;;;;6233886;28;20025;-68
2022/08/09 07:29:36;;;;;;;3.88;0.80;;;23.50;52.90;;;;;;6229691;28;20480;-68
2022/08/09 07:32:38;;;;;;;1.00;0.90;;;23.50;52.10;;;;;;6233775;28;20109;-68
2022/08/09 07:35:38;;;;;;;2.88;0.90;;;23.50;52.10;;;;;;6231031;28;20110;-68
2022/08/09 07:38:39;;;;;;;1.08;0.90;;;23.50;52.10;;;;;;6225204;28;20018;-68
2022/08/09 07:41:40;;;;;;;6.13;0.88;;;23.50;52.10;;;;;;6244665;28;20025;-68
2022/08/09 07:44:41;;;;;;;1.17;0.93;;;23.50;52.10;;;;;;6246416;28;20050;-68
2022/08/09 07:47:41;;;;;;;2.17;0.80;;;23.50;52.10;;;;;;6224356;28;20026;-68
2022/08/09 07:50:42;;;;;;;2.40;0.82;;;23.50;52.10;;;;;;6235352;28;20040;-68
2022/08/09 07:53:43;;;;;;;0.80;0.80;;;23.50;52.10;;;;;;6240895;28;20076;-68
2022/08/09 07:56:43;;;;;;;0.80;0.73;;;23.50;52.10;;;;;;6242691;28;20384;-68
2022/08/09 07:59:44;;;;;;;1.13;0.90;;;23.50;52.10;;;;;;6247322;28;20032;-71
2022/08/09 08:02:45;;;;;;;3.95;1.13;;;23.50;53.00;;;;;;6223816;28;20091;-68
2022/08/09 08:05:46;;;;;;;3.40;1.00;;;23.60;53.10;;;;;;6233665;28;20369;-68
2022/08/09 08:08:47;;;;;;;7.65;1.35;;;23.50;50.50;;;;;;6248721;28;20453;-68
2022/08/09 08:11:47;;;;;;;4.22;1.00;;;23.60;49.70;;;;;;6231765;28;20028;-69
2022/08/09 08:14:48;;;;;;;1.50;1.02;;;23.70;49.20;;;;;;6223888;28;20026;-68
2022/08/09 08:17:52;;;;;;;4.57;1.17;;;23.80;48.80;;;;;;6234034;28;20037;-68
2022/08/09 08:20:53;;;;;;;2.40;1.08;;;23.90;48.50;;;;;;6232226;28;20039;-68
2022/08/09 08:23:54;;;;;;;1.40;1.10;;;24.00;48.40;;;;;;6248527;28;20057;-68
2022/08/09 08:26:54;;;;;;;2.08;1.30;;;24.00;48.10;;;;;;6231873;28;20028;-68
2022/08/09 08:29:55;;;;;;;3.28;1.25;;;24.10;48.00;;;;;;6223956;28;20389;-68
2022/08/09 08:32:56;;;;;;;1.80;1.10;;;24.10;47.80;;;;;;6229415;28;20030;-68
2022/08/09 08:35:56;;;;;;;1.27;1.00;;;24.20;47.60;;;;;;6223248;28;20026;-68
2022/08/09 08:38:58;;;;;;;2.30;1.35;;;24.20;47.50;;;;;;6223162;28;20049;-68
2022/08/09 08:41:59;;;;;;;2.67;1.13;;;24.20;47.40;;;;;;6237694;28;20658;-68
2022/08/09 08:45:00;;;;;;;1.80;1.08;;;24.20;47.20;;;;;;6248223;28;20028;-68
2022/08/09 08:48:01;;;;;;;2.50;1.30;;;24.30;47.10;;;;;;6225577;28;20507;-68
2022/08/09 08:51:03;;;;;;;4.30;1.50;;;24.20;46.70;;;;;;6228674;28;20520;-68
2022/08/09 08:54:07;;;;;;;2.50;0.90;;;24.20;46.40;;;;;;6247775;28;20029;-68
2022/08/09 08:57:08;;;;;;;4.47;1.45;;;24.20;46.50;;;;;;6233571;28;20036;-68
2022/08/09 09:00:09;;;;;;;1.77;1.10;;;24.20;46.70;;;;;;6222822;28;20026;-68
2022/08/09 09:03:14;;;;;;;2.15;1.45;;;24.20;46.60;;;;;;6244035;28;20037;-68
2022/08/09 09:06:16;;;;;;;2.22;1.20;;;24.20;46.40;;;;;;6241352;28;20014;-68
2022/08/09 09:09:19;;;;;;;1.42;1.10;;;24.20;46.50;;;;;;6246912;28;20069;-68
2022/08/09 09:12:22;;;;;;;2.03;1.40;;;24.20;46.40;;;;;;6224078;28;20030;-68
2022/08/09 09:15:23;;;;;;;2.90;1.30;;;24.20;46.40;;;;;;6246597;28;20500;-68
2022/08/09 09:18:24;;;;;;;2.42;1.33;;;24.20;46.50;;;;;;6225171;28;20032;-68
2022/08/09 09:21:24;;;;;;;1.90;1.30;;;24.30;46.40;;;;;;6226468;28;20026;-67
2022/08/09 09:24:31;;;;;;;1.95;1.10;;;24.30;46.30;;;;;;6242918;28;20397;-68
2022/08/09 09:27:31;;;;;;;2.20;1.10;;;24.30;46.30;;;;;;6221442;28;20025;-68
2022/08/09 09:30:33;;;;;;;1.30;1.00;;;24.30;46.30;;;;;;6194960;28;20058;-68
2022/08/09 09:33:35;;;;;;;2.13;1.20;;;24.20;46.20;;;;;;6242766;28;20484;-68
2022/08/09 09:36:39;;;;;;;1.30;1.00;;;24.30;46.30;;;;;;6243046;28;20026;-67
2022/08/09 09:39:52;;;;;;;3.03;1.38;;;24.30;46.10;;;;;;6222331;28;20439;-67
2022/08/09 09:42:56;;;;;;;2.17;1.17;;;24.30;46.10;;;;;;6234908;28;20025;-68
2022/08/09 09:45:57;;;;;;;2.05;1.10;;;24.30;46.10;;;;;;6245491;28;20029;-68
2022/08/09 09:49:04;;;;;;;2.70;1.40;;;24.30;46.40;;;;;;6224176;28;20047;-68
2022/08/09 09:52:09;;;;;;;4.53;0.98;;;24.30;46.10;;;;;;6227007;28;20329;-68
2022/08/09 09:55:10;;;;;;;1.20;1.00;;;24.30;46.00;;;;;;6246372;28;20087;-68
2022/08/09 09:58:11;;;;;;;1.10;1.00;;;24.30;45.80;;;;;;6231921;28;20026;-68
2022/08/09 10:01:19;;;;;;;1.35;1.00;;;24.30;45.90;;;;;;6221316;28;20025;-68
2022/08/09 10:04:20;;;;;;;2.28;1.00;;;24.30;45.80;;;;;;6244117;28;20048;-68
2022/08/09 10:07:26;;;;;;;2.17;1.60;;;24.30;45.80;;;;;;6238734;28;20018;-68
2022/08/09 10:10:30;;;;;;;2.35;1.20;;;24.30;45.80;;;;;;6221236;28;20030;-68
2022/08/09 10:13:38;;;;;;;1.50;1.05;;;24.30;45.70;;;;;;6235487;28;20033;-68
2022/08/09 10:16:40;;;;;;;2.42;1.00;;;24.30;45.60;;;;;;6240999;28;20755;-68
2022/08/09 10:19:40;;;;;;;1.50;1.00;;;24.30;45.70;;;;;;6243964;28;20025;-68
2022/08/09 10:22:41;;;;;;;1.58;1.10;;;24.40;45.60;;;;;;6208425;28;20515;-68
2022/08/09 10:25:44;;;;;;;1.35;1.02;;;24.40;45.60;;;;;;6215693;28;20473;-67
2022/08/09 10:28:45;;;;;;;1.50;1.10;;;24.40;45.40;;;;;;6225661;28;20429;-68
2022/08/09 10:31:45;;;;;;;1.23;1.10;;;24.40;45.50;;;;;;6236789;28;20038;-68
2022/08/09 10:34:47;;;;;;;1.30;1.20;;;24.40;45.50;;;;;;6188747;28;20100;-67
2022/08/09 10:37:48;;;;;;;2.10;1.10;;;24.40;45.50;;;;;;6214416;28;20465;-68
2022/08/09 10:40:49;;;;;;;2.97;1.20;;;24.40;45.40;;;;;;6245439;28;20021;-68
2022/08/09 10:43:50;;;;;;;1.20;1.10;;;24.40;45.50;;;;;;6232307;28;20473;-68
2022/08/09 10:46:54;;;;;;;6.88;1.70;;;24.40;46.10;;;;;;6221112;28;20080;-68
2022/08/09 10:50:00;;;;;;;1.30;1.10;;;24.40;45.30;;;;;;6241448;28;20030;-68
2022/08/09 10:53:58;;;;;;;1.85;1.20;;;24.40;45.40;;;;;;6240068;28;20053;-68
2022/08/09 10:57:12;;;;;;;1.75;0.93;;;24.40;45.30;;;;;;6216334;28;20049;-68
2022/08/09 11:00:27;;;;;;;1.33;1.05;;;24.40;45.30;;;;;;6245135;28;20025;-68
2022/08/09 11:03:28;;;;;;;1.65;1.17;;;24.40;45.30;;;;;;6215418;28;20112;-67
2022/08/09 11:06:29;;;;;;;1.83;1.25;;;24.40;45.30;;;;;;6249982;28;20025;-67
2022/08/09 11:09:42;;;;;;;1.23;1.00;;;24.40;45.30;;;;;;6234738;28;20030;-67
2022/08/09 11:13:12;;;;;;;1.38;1.00;;;24.40;45.30;;;;;;6238142;28;20562;-68
2022/08/09 11:16:32;;;;;;;1.55;1.25;;;24.40;45.20;;;;;;6201477;28;20031;-68
2022/08/09 11:20:00;;;;;;;1.67;0.98;;;24.40;45.20;;;;;;6239031;28;20396;-68
2022/08/09 11:23:01;;;;;;;1.02;0.90;;;24.40;45.10;;;;;;6248561;28;20054;-68
2022/08/09 11:26:02;;;;;;;1.10;1.00;;;24.40;45.10;;;;;;6236079;28;20380;-68
2022/08/09 11:29:03;;;;;;;2.08;1.23;;;24.40;45.10;;;;;;6241024;28;20077;-68
2022/08/09 11:32:04;;;;;;;1.10;1.00;;;24.50;45.10;;;;;;6224644;28;20022;-68
2022/08/09 11:35:22;;;;;;;3.30;1.05;;;24.50;45.10;;;;;;6224692;28;20033;-68
2022/08/09 11:38:24;;;;;;;1.13;1.00;;;24.50;45.10;;;;;;6226417;28;20018;-67
2022/08/09 11:41:27;;;;;;;2.10;0.90;;;24.40;45.10;;;;;;6249493;28;20022;-68
2022/08/09 11:44:48;;;;;;;1.00;0.90;;;24.40;45.10;;;;;;6239020;28;20064;-67
2022/08/09 11:47:56;;;;;;;0.80;0.80;;;24.40;45.00;;;;;;6224610;28;20092;-68
2022/08/09 11:50:56;;;;;;;2.20;1.20;;;24.50;45.10;;;;;;6219663;28;20036;-67
2022/08/09 11:54:15;;;;;;;5.60;0.90;;;24.50;45.10;;;;;;6245427;28;20022;-67
2022/08/09 11:57:38;;;;;;;1.20;0.82;;;24.50;45.10;;;;;;6206950;28;20089;-67
2022/08/09 12:00:47;;;;;;;1.83;1.00;;;24.50;45.10;;;;;;6224487;28;20128;-67
2022/08/09 12:03:47;;;;;;;1.33;1.00;;;24.50;45.10;;;;;;6202349;28;20105;-68
2022/08/09 12:06:49;;;;;;;1.25;0.90;;;24.50;45.00;;;;;;6247902;28;20488;-68
2022/08/09 12:09:50;;;;;;;0.93;0.80;;;24.60;44.90;;;;;;6237173;28;20105;-68
2022/08/09 12:12:51;;;;;;;0.73;0.70;;;24.60;44.90;;;;;;6210984;28;20026;-67
2022/08/09 12:16:07;;;;;;;2.58;1.00;;;24.60;44.90;;;;;;6227610;28;20048;-68
2022/08/09 12:19:11;;;;;;;1.58;0.77;;;24.60;44.80;;;;;;6207501;28;20393;-67
2022/08/09 12:22:12;;;;;;;4.20;1.00;;;24.60;45.40;;;;;;6224458;28;20088;-67
2022/08/09 12:25:15;;;;;;;1.27;0.75;;;24.60;44.60;;;;;;6226391;28;20080;-68
2022/08/09 12:28:18;;;;;;;1.52;0.77;;;24.60;44.60;;;;;;6221958;28;20049;-67
2022/08/09 12:31:28;;;;;;;2.53;1.10;;;24.60;44.60;;;;;;6222681;28;20504;-68
2022/08/09 12:34:40;;;;;;;4.40;1.10;;;24.60;44.70;;;;;;6221323;28;20106;-67
2022/08/09 12:37:41;;;;;;;3.90;1.27;;;24.70;44.70;;;;;;6220635;28;20029;-67
2022/08/09 12:40:46;;;;;;;1.38;1.00;;;24.70;44.60;;;;;;6234086;28;20037;-69
2022/08/09 12:43:47;;;;;;;3.58;0.85;;;24.70;44.60;;;;;;6247097;28;20036;-68
2022/08/09 12:46:48;;;;;;;1.00;0.82;;;24.70;44.80;;;;;;6225799;28;20464;-69
2022/08/09 12:53:26;;;;;;;2.28;0.90;;;24.70;45.00;;;;;;6223513;28;20034;-69
2022/08/09 12:56:27;;;;;;;2.97;0.90;;;24.60;44.90;;;;;;6223530;28;20049;-69
2022/08/09 12:59:29;;;;;;;0.95;0.85;;;24.60;44.90;;;;;;6221481;28;20026;-69
2022/08/09 13:02:52;;;;;;;1.60;0.95;;;24.60;44.80;;;;;;6199440;28;20080;-68
2022/08/09 13:05:53;;;;;;;0.90;0.80;;;24.60;44.90;;;;;;6217019;28;20030;-69
2022/08/09 13:09:08;;;;;;;1.60;0.95;;;24.50;45.90;;;;;;6246195;28;20040;-69
2022/08/09 13:12:09;;;;;;;0.80;0.80;;;24.40;45.80;;;;;;6226120;28;20030;-69
2022/08/09 13:15:10;;;;;;;1.85;0.77;;;24.30;46.10;;;;;;6224119;28;20036;-69
2022/08/09 13:18:10;;;;;;;2.78;1.00;;;24.30;46.60;;;;;;6226965;28;20539;-69
2022/08/09 13:21:26;;;;;;;0.70;0.70;;;24.20;47.10;;;;;;6230880;28;20064;-68
2022/08/09 13:24:30;;;;;;;1.17;0.98;;;24.20;47.50;;;;;;6231533;28;20046;-69
2022/08/09 13:27:37;;;;;;;4.45;1.00;;;24.20;47.00;;;;;;6220675;28;20112;-68
2022/08/09 13:30:37;;;;;;;1.65;0.90;;;24.20;47.70;;;;;;6225920;28;20030;-67
2022/08/09 13:33:38;;;;;;;4.15;0.80;;;24.20;47.40;;;;;;6220159;28;20032;-67
2022/08/09 13:36:39;;;;;;;1.05;0.70;;;24.20;47.60;;;;;;6220364;28;20097;-67
2022/08/09 13:39:40;;;;;;;1.30;1.00;;;24.20;47.90;;;;;;6220884;28;20030;-67
2022/08/09 13:42:41;;;;;;;0.70;0.60;;;24.10;48.20;;;;;;6241304;28;20033;-68
2022/08/09 13:45:41;;;;;;;1.65;0.98;;;24.10;48.20;;;;;;6241608;28;20014;-67
2022/08/09 13:48:42;;;;;;;0.90;0.60;;;24.10;48.10;;;;;;6220404;28;20464;-67
2022/08/09 13:51:42;;;;;;;1.40;0.75;;;24.20;48.00;;;;;;6231687;28;20033;-67
2022/08/09 13:54:43;;;;;;;0.77;0.75;;;24.10;48.30;;;;;;6244561;28;20381;-67
2022/08/09 13:57:48;;;;;;;1.40;0.90;;;24.10;48.40;;;;;;6237599;28;20033;-68
2022/08/09 14:00:49;;;;;;;1.65;1.00;;;24.10;48.50;;;;;;6237422;28;20080;-67
2022/08/09 14:03:49;;;;;;;1.00;0.85;;;24.10;48.70;;;;;;6244936;28;20022;-68
2022/08/09 14:06:59;;;;;;;1.83;0.90;;;24.10;49.00;;;;;;6234137;28;20022;-68
2022/08/09 14:09:59;;;;;;;1.92;0.90;;;24.10;48.80;;;;;;6218642;28;20034;-68
2022/08/09 14:13:00;;;;;;;1.10;1.00;;;24.10;48.90;;;;;;6239223;28;20025;-68
2022/08/09 14:16:01;;;;;;;1.15;0.82;;;24.10;48.90;;;;;;6242144;28;20071;-68
2022/08/09 14:19:02;;;;;;;1.55;1.00;;;24.10;48.90;;;;;;6219612;28;20473;-68
2022/08/09 14:22:03;;;;;;;0.80;0.60;;;24.00;48.90;;;;;;6229027;28;20415;-68
2022/08/09 14:25:04;;;;;;;3.63;0.80;;;24.00;48.90;;;;;;6243898;28;20053;-68
2022/08/09 14:28:04;;;;;;;1.00;0.60;;;24.00;48.90;;;;;;6226779;28;20668;-68
2022/08/09 14:31:05;;;;;;;4.65;0.95;;;24.00;49.00;;;;;;6215853;28;20073;-68
2022/08/09 14:34:06;;;;;;;0.82;0.75;;;24.00;49.00;;;;;;6219337;28;20058;-68
2022/08/09 14:37:07;;;;;;;1.00;0.90;;;24.00;49.00;;;;;;6226355;28;20076;-68
2022/08/09 14:40:08;;;;;;;1.38;0.70;;;24.00;49.00;;;;;;6220376;28;20346;-68
2022/08/09 14:43:09;;;;;;;1.15;0.90;;;24.00;49.00;;;;;;6231011;28;20022;-67
2022/08/09 14:46:10;;;;;;;0.88;0.82;;;24.00;49.10;;;;;;6219546;28;20680;-68
2022/08/09 14:49:10;;;;;;;1.33;0.80;;;24.00;49.10;;;;;;6243478;28;20073;-68
2022/08/09 14:52:11;;;;;;;0.90;0.65;;;24.00;49.10;;;;;;6237154;28;20105;-68
2022/08/09 14:55:12;;;;;;;0.73;0.73;;;24.00;49.30;;;;;;6215276;28;20030;-68
2022/08/09 14:58:12;;;;;;;1.38;0.75;;;24.00;49.30;;;;;;6223254;28;20391;-68
2022/08/09 15:01:13;;;;;;;0.90;0.80;;;24.00;49.40;;;;;;6225279;28;20058;-68
2022/08/09 15:04:14;;;;;;;0.95;0.75;;;24.00;49.50;;;;;;6239610;28;20369;-68
2022/08/09 15:07:15;;;;;;;0.60;0.60;;;23.90;49.60;;;;;;6238220;28;20068;-68
2022/08/09 15:10:16;;;;;;;0.98;0.80;;;23.90;49.60;;;;;;6219691;28;20128;-68
2022/08/09 15:13:17;;;;;;;1.13;0.93;;;23.90;49.80;;;;;;6232451;28;20029;-68
2022/08/09 15:16:18;;;;;;;1.10;0.70;;;23.90;49.70;;;;;;6241627;28;20160;-68
2022/08/09 15:19:19;;;;;;;0.70;0.65;;;23.90;49.90;;;;;;6240173;28;20032;-68
2022/08/09 15:22:19;;;;;;;0.80;0.73;;;23.90;50.00;;;;;;6239459;28;20385;-68
2022/08/09 15:25:21;;;;;;;0.63;0.63;;;23.90;50.00;;;;;;6217246;28;20436;-69
2022/08/09 15:28:21;;;;;;;0.75;0.60;;;23.90;50.10;;;;;;6218725;28;20104;-68
2022/08/09 15:31:23;;;;;;;0.90;0.70;;;23.90;50.10;;;;;;6215244;28;20034;-68
2022/08/09 15:34:23;;;;;;;0.68;0.60;;;23.90;50.10;;;;;;6218637;28;20018;-68
2022/08/09 15:37:34;;;;;;;0.90;0.70;;;23.80;50.10;;;;;;6221247;28;20081;-69
2022/08/09 15:40:35;;;;;;;0.50;0.50;;;23.80;49.90;;;;;;6242579;28;20021;-69
2022/08/09 15:43:37;;;;;;;1.08;0.80;;;23.90;50.10;;;;;;6234925;28;20029;-69
2022/08/09 15:46:38;;;;;;;1.50;0.80;;;23.90;49.80;;;;;;6223389;28;20022;-69
2022/08/09 15:49:39;;;;;;;4.00;0.80;;;23.90;49.80;;;;;;6243004;28;20048;-69
2022/08/09 15:52:41;;;;;;;1.00;0.80;;;23.80;50.10;;;;;;6229217;28;20056;-69
2022/08/09 15:55:42;;;;;;;1.10;0.90;;;23.80;50.10;;;;;;6217037;28;20101;-69
2022/08/09 15:58:43;;;;;;;0.98;0.82;;;23.80;50.20;;;;;;6219443;28;20021;-68